sensor_id;sensor_type;location;lat;lon;timestamp;temperature;humidity
68274;SHT30;55104;47.356;19.448;2022-08-03T00:01:34;20.92;69.12
68274;SHT30;55104;47.356;19.448;2022-08-03T00:04:36;20.91;68.80
68274;SHT30;55104;47.356;19.448;2022-08-03T00:07:38;20.95;69.17
68274;SHT30;55104;47.356;19.448;2022-08-03T00:10:42;20.91;69.44
68274;SHT30;55104;47.356;19.448;2022-08-03T00:13:44;20.81;69.85
68274;SHT30;55104;47.356;19.448;2022-08-03T00:16:46;20.82;69.94
68274;SHT30;55104;47.356;19.448;2022-08-03T00:19:48;20.75;70.05
68274;SHT30;55104;47.356;19.448;2022-08-03T00:22:50;20.69;70.08
68274;SHT30;55104;47.356;19.448;2022-08-03T00:25:52;20.63;70.17
68274;SHT30;55104;47.356;19.448;2022-08-03T00:28:54;20.61;70.69
68274;SHT30;55104;47.356;19.448;2022-08-03T00:31:56;20.59;70.77
68274;SHT30;55104;47.356;19.448;2022-08-03T00:35:01;20.57;70.65
68274;SHT30;55104;47.356;19.448;2022-08-03T00:38:10;20.57;70.53
68274;SHT30;55104;47.356;19.448;2022-08-03T00:41:12;20.54;70.86
68274;SHT30;55104;47.356;19.448;2022-08-03T00:44:16;20.61;70.52
68274;SHT30;55104;47.356;19.448;2022-08-03T00:47:18;20.63;70.37
68274;SHT30;55104;47.356;19.448;2022-08-03T00:50:22;20.59;70.88
68274;SHT30;55104;47.356;19.448;2022-08-03T00:53:24;20.55;71.11
68274;SHT30;55104;47.356;19.448;2022-08-03T00:56:26;20.58;71.19
68274;SHT30;55104;47.356;19.448;2022-08-03T00:59:28;20.65;71.06
68274;SHT30;55104;47.356;19.448;2022-08-03T01:02:30;20.59;71.53
68274;SHT30;55104;47.356;19.448;2022-08-03T01:06:01;20.59;71.58
68274;SHT30;55104;47.356;19.448;2022-08-03T01:09:13;20.59;71.89
68274;SHT30;55104;47.356;19.448;2022-08-03T01:12:25;20.63;71.75
68274;SHT30;55104;47.356;19.448;2022-08-03T01:15:49;20.54;72.18
68274;SHT30;55104;47.356;19.448;2022-08-03T01:22:46;20.52;72.45
68274;SHT30;55104;47.356;19.448;2022-08-03T01:32:53;20.54;72.82
68274;SHT30;55104;47.356;19.448;2022-08-03T01:36:06;20.51;73.08
68274;SHT30;55104;47.356;19.448;2022-08-03T01:39:11;20.50;72.99
68274;SHT30;55104;47.356;19.448;2022-08-03T01:42:14;20.44;73.37
68274;SHT30;55104;47.356;19.448;2022-08-03T01:45:19;20.40;73.93
68274;SHT30;55104;47.356;19.448;2022-08-03T01:48:23;20.36;73.86
68274;SHT30;55104;47.356;19.448;2022-08-03T01:51:27;20.33;74.08
68274;SHT30;55104;47.356;19.448;2022-08-03T01:54:52;20.30;73.94
68274;SHT30;55104;47.356;19.448;2022-08-03T01:57:55;20.26;74.31
68274;SHT30;55104;47.356;19.448;2022-08-03T02:01:07;20.23;74.44
68274;SHT30;55104;47.356;19.448;2022-08-03T02:04:12;20.23;74.72
68274;SHT30;55104;47.356;19.448;2022-08-03T02:07:16;20.14;74.75
68274;SHT30;55104;47.356;19.448;2022-08-03T02:10:19;20.09;75.27
68274;SHT30;55104;47.356;19.448;2022-08-03T02:13:36;20.06;75.34
68274;SHT30;55104;47.356;19.448;2022-08-03T02:16:39;20.05;75.33
68274;SHT30;55104;47.356;19.448;2022-08-03T02:19:42;20.00;75.58
68274;SHT30;55104;47.356;19.448;2022-08-03T02:22:45;19.95;76.06
68274;SHT30;55104;47.356;19.448;2022-08-03T02:25:52;19.95;76.02
68274;SHT30;55104;47.356;19.448;2022-08-03T02:29:05;19.87;75.62
68274;SHT30;55104;47.356;19.448;2022-08-03T02:32:11;19.83;75.88
68274;SHT30;55104;47.356;19.448;2022-08-03T02:35:17;19.79;76.25
68274;SHT30;55104;47.356;19.448;2022-08-03T02:38:25;19.76;76.55
68274;SHT30;55104;47.356;19.448;2022-08-03T02:41:37;19.71;76.23
68274;SHT30;55104;47.356;19.448;2022-08-03T02:44:44;19.68;76.20
68274;SHT30;55104;47.356;19.448;2022-08-03T02:47:51;19.64;76.63
68274;SHT30;55104;47.356;19.448;2022-08-03T02:50:57;19.62;76.94
68274;SHT30;55104;47.356;19.448;2022-08-03T02:54:02;19.64;76.75
68274;SHT30;55104;47.356;19.448;2022-08-03T02:57:06;19.66;76.91
68274;SHT30;55104;47.356;19.448;2022-08-03T03:00:11;19.66;76.45
68274;SHT30;55104;47.356;19.448;2022-08-03T03:03:21;19.69;76.60
68274;SHT30;55104;47.356;19.448;2022-08-03T03:06:27;19.69;76.34
68274;SHT30;55104;47.356;19.448;2022-08-03T03:09:32;19.71;76.24
68274;SHT30;55104;47.356;19.448;2022-08-03T03:12:44;19.65;76.65
68274;SHT30;55104;47.356;19.448;2022-08-03T03:15:47;19.61;76.30
68274;SHT30;55104;47.356;19.448;2022-08-03T03:18:50;19.57;76.29
68274;SHT30;55104;47.356;19.448;2022-08-03T03:21:54;19.57;76.41
68274;SHT30;55104;47.356;19.448;2022-08-03T03:24:56;19.51;76.64
68274;SHT30;55104;47.356;19.448;2022-08-03T03:28:00;19.44;76.71
68274;SHT30;55104;47.356;19.448;2022-08-03T03:31:04;19.41;77.11
68274;SHT30;55104;47.356;19.448;2022-08-03T03:34:07;19.35;77.18
68274;SHT30;55104;47.356;19.448;2022-08-03T03:37:09;19.28;77.47
68274;SHT30;55104;47.356;19.448;2022-08-03T03:40:12;19.21;77.30
68274;SHT30;55104;47.356;19.448;2022-08-03T03:43:15;19.19;77.55
68274;SHT30;55104;47.356;19.448;2022-08-03T03:46:19;19.14;77.76
68274;SHT30;55104;47.356;19.448;2022-08-03T03:49:21;19.07;78.09
68274;SHT30;55104;47.356;19.448;2022-08-03T03:52:23;19.03;78.37
68274;SHT30;55104;47.356;19.448;2022-08-03T03:55:25;19.04;78.14
68274;SHT30;55104;47.356;19.448;2022-08-03T03:58:28;19.02;78.27
68274;SHT30;55104;47.356;19.448;2022-08-03T04:01:31;19.02;78.47
68274;SHT30;55104;47.356;19.448;2022-08-03T04:04:33;19.00;78.50
68274;SHT30;55104;47.356;19.448;2022-08-03T04:08:03;19.09;78.34
68274;SHT30;55104;47.356;19.448;2022-08-03T04:11:42;19.13;78.37
68274;SHT30;55104;47.356;19.448;2022-08-03T04:14:47;19.19;78.03
68274;SHT30;55104;47.356;19.448;2022-08-03T04:17:51;19.27;78.26
68274;SHT30;55104;47.356;19.448;2022-08-03T04:20:58;19.40;78.14
68274;SHT30;55104;47.356;19.448;2022-08-03T04:24:03;19.57;77.74
68274;SHT30;55104;47.356;19.448;2022-08-03T04:27:08;19.68;77.00
68274;SHT30;55104;47.356;19.448;2022-08-03T04:30:13;19.79;76.70
68274;SHT30;55104;47.356;19.448;2022-08-03T04:33:16;19.90;76.28
68274;SHT30;55104;47.356;19.448;2022-08-03T04:36:22;20.16;75.69
68274;SHT30;55104;47.356;19.448;2022-08-03T04:39:26;20.41;74.80
68274;SHT30;55104;47.356;19.448;2022-08-03T04:42:32;20.68;73.89
68274;SHT30;55104;47.356;19.448;2022-08-03T04:45:35;20.91;73.00
68274;SHT30;55104;47.356;19.448;2022-08-03T04:48:38;21.00;72.70
68274;SHT30;55104;47.356;19.448;2022-08-03T04:51:45;21.22;72.22
68274;SHT30;55104;47.356;19.448;2022-08-03T04:54:48;21.41;71.03
68274;SHT30;55104;47.356;19.448;2022-08-03T04:57:52;21.51;70.65
68274;SHT30;55104;47.356;19.448;2022-08-03T05:00:54;21.64;70.24
68274;SHT30;55104;47.356;19.448;2022-08-03T05:03:56;21.77;69.77
68274;SHT30;55104;47.356;19.448;2022-08-03T05:06:58;21.96;69.30
68274;SHT30;55104;47.356;19.448;2022-08-03T05:10:13;22.08;69.10
68274;SHT30;55104;47.356;19.448;2022-08-03T05:13:17;22.22;68.57
68274;SHT30;55104;47.356;19.448;2022-08-03T05:16:19;22.37;67.92
68274;SHT30;55104;47.356;19.448;2022-08-03T05:19:21;22.47;67.80
68274;SHT30;55104;47.356;19.448;2022-08-03T05:22:23;22.53;67.76
68274;SHT30;55104;47.356;19.448;2022-08-03T05:25:25;22.54;67.45
68274;SHT30;55104;47.356;19.448;2022-08-03T05:28:28;22.60;67.79
68274;SHT30;55104;47.356;19.448;2022-08-03T05:31:30;22.68;67.22
68274;SHT30;55104;47.356;19.448;2022-08-03T05:34:32;22.74;67.13
68274;SHT30;55104;47.356;19.448;2022-08-03T05:37:34;22.90;66.87
68274;SHT30;55104;47.356;19.448;2022-08-03T05:40:37;22.94;66.40
68274;SHT30;55104;47.356;19.448;2022-08-03T05:43:47;23.02;65.88
68274;SHT30;55104;47.356;19.448;2022-08-03T05:46:49;23.22;65.88
68274;SHT30;55104;47.356;19.448;2022-08-03T05:49:51;23.30;65.22
68274;SHT30;55104;47.356;19.448;2022-08-03T05:52:56;23.39;65.25
68274;SHT30;55104;47.356;19.448;2022-08-03T05:55:59;23.74;64.69
68274;SHT30;55104;47.356;19.448;2022-08-03T05:59:15;23.70;63.86
68274;SHT30;55104;47.356;19.448;2022-08-03T06:02:37;23.98;62.99
68274;SHT30;55104;47.356;19.448;2022-08-03T06:05:40;24.43;61.60
68274;SHT30;55104;47.356;19.448;2022-08-03T06:09:00;24.61;60.68
68274;SHT30;55104;47.356;19.448;2022-08-03T06:12:03;24.84;60.38
68274;SHT30;55104;47.356;19.448;2022-08-03T06:15:05;25.03;60.16
68274;SHT30;55104;47.356;19.448;2022-08-03T06:18:12;24.83;60.04
68274;SHT30;55104;47.356;19.448;2022-08-03T06:21:14;25.25;59.14
68274;SHT30;55104;47.356;19.448;2022-08-03T06:24:17;25.32;58.60
68274;SHT30;55104;47.356;19.448;2022-08-03T06:27:25;25.38;58.59
68274;SHT30;55104;47.356;19.448;2022-08-03T06:30:39;25.22;59.13
68274;SHT30;55104;47.356;19.448;2022-08-03T06:33:41;25.29;59.19
68274;SHT30;55104;47.356;19.448;2022-08-03T06:37:03;25.60;58.22
68274;SHT30;55104;47.356;19.448;2022-08-03T06:40:06;25.74;58.24
68274;SHT30;55104;47.356;19.448;2022-08-03T06:43:08;25.79;57.99
68274;SHT30;55104;47.356;19.448;2022-08-03T06:46:13;25.96;57.26
68274;SHT30;55104;47.356;19.448;2022-08-03T06:49:15;25.94;56.77
68274;SHT30;55104;47.356;19.448;2022-08-03T06:52:18;26.17;57.43
68274;SHT30;55104;47.356;19.448;2022-08-03T06:55:39;26.28;56.51
68274;SHT30;55104;47.356;19.448;2022-08-03T06:58:43;26.45;56.31
68274;SHT30;55104;47.356;19.448;2022-08-03T07:01:45;26.39;55.66
68274;SHT30;55104;47.356;19.448;2022-08-03T07:04:48;26.60;55.21
68274;SHT30;55104;47.356;19.448;2022-08-03T07:07:53;26.42;54.87
68274;SHT30;55104;47.356;19.448;2022-08-03T07:10:56;26.55;54.54
68274;SHT30;55104;47.356;19.448;2022-08-03T07:13:58;26.79;54.89
68274;SHT30;55104;47.356;19.448;2022-08-03T07:17:00;26.96;53.33
68274;SHT30;55104;47.356;19.448;2022-08-03T07:20:12;26.97;53.22
68274;SHT30;55104;47.356;19.448;2022-08-03T07:23:15;27.21;52.75
68274;SHT30;55104;47.356;19.448;2022-08-03T07:26:20;27.07;52.54
68274;SHT30;55104;47.356;19.448;2022-08-03T07:29:22;26.97;52.95
68274;SHT30;55104;47.356;19.448;2022-08-03T07:32:24;27.27;52.01
68274;SHT30;55104;47.356;19.448;2022-08-03T07:35:27;27.18;51.84
68274;SHT30;55104;47.356;19.448;2022-08-03T07:38:29;26.98;52.72
68274;SHT30;55104;47.356;19.448;2022-08-03T07:41:31;26.93;52.62
68274;SHT30;55104;47.356;19.448;2022-08-03T07:44:33;27.21;53.04
68274;SHT30;55104;47.356;19.448;2022-08-03T07:47:35;27.28;51.39
68274;SHT30;55104;47.356;19.448;2022-08-03T07:50:37;27.55;52.51
68274;SHT30;55104;47.356;19.448;2022-08-03T07:53:39;27.89;51.50
68274;SHT30;55104;47.356;19.448;2022-08-03T07:56:48;28.29;50.78
68274;SHT30;55104;47.356;19.448;2022-08-03T07:59:50;28.48;49.70
68274;SHT30;55104;47.356;19.448;2022-08-03T08:03:12;28.68;49.30
68274;SHT30;55104;47.356;19.448;2022-08-03T08:06:14;28.69;48.53
68274;SHT30;55104;47.356;19.448;2022-08-03T08:09:17;28.86;48.29
68274;SHT30;55104;47.356;19.448;2022-08-03T08:12:19;28.84;47.64
68274;SHT30;55104;47.356;19.448;2022-08-03T08:15:22;29.07;48.35
68274;SHT30;55104;47.356;19.448;2022-08-03T08:18:24;29.16;46.63
68274;SHT30;55104;47.356;19.448;2022-08-03T08:21:26;28.70;46.75
68274;SHT30;55104;47.356;19.448;2022-08-03T08:24:48;28.99;46.67
68274;SHT30;55104;47.356;19.448;2022-08-03T08:27:53;29.17;46.94
68274;SHT30;55104;47.356;19.448;2022-08-03T08:31:15;29.48;47.04
68274;SHT30;55104;47.356;19.448;2022-08-03T08:34:17;29.76;46.81
68274;SHT30;55104;47.356;19.448;2022-08-03T08:37:19;29.78;45.42
68274;SHT30;55104;47.356;19.448;2022-08-03T08:40:23;29.92;44.41
68274;SHT30;55104;47.356;19.448;2022-08-03T08:43:26;30.05;45.69
68274;SHT30;55104;47.356;19.448;2022-08-03T08:46:31;29.92;45.87
68274;SHT30;55104;47.356;19.448;2022-08-03T08:49:35;30.37;46.15
68274;SHT30;55104;47.356;19.448;2022-08-03T08:52:42;30.41;44.67
68274;SHT30;55104;47.356;19.448;2022-08-03T08:55:47;30.71;44.29
68274;SHT30;55104;47.356;19.448;2022-08-03T08:59:01;30.75;43.91
68274;SHT30;55104;47.356;19.448;2022-08-03T09:02:04;30.86;43.44
68274;SHT30;55104;47.356;19.448;2022-08-03T09:05:10;30.72;42.99
68274;SHT30;55104;47.356;19.448;2022-08-03T09:08:13;30.71;43.48
68274;SHT30;55104;47.356;19.448;2022-08-03T09:11:20;30.83;43.66
68274;SHT30;55104;47.356;19.448;2022-08-03T09:14:42;30.90;42.71
68274;SHT30;55104;47.356;19.448;2022-08-03T09:18:05;30.81;42.73
68274;SHT30;55104;47.356;19.448;2022-08-03T09:24:33;30.88;41.55
68274;SHT30;55104;47.356;19.448;2022-08-03T09:27:44;30.51;42.16
68274;SHT30;55104;47.356;19.448;2022-08-03T09:30:58;30.55;41.59
68274;SHT30;55104;47.356;19.448;2022-08-03T09:34:05;30.81;41.57
68274;SHT30;55104;47.356;19.448;2022-08-03T09:37:13;30.86;42.29
68274;SHT30;55104;47.356;19.448;2022-08-03T09:40:33;31.25;42.10
68274;SHT30;55104;47.356;19.448;2022-08-03T09:43:45;31.57;41.86
68274;SHT30;55104;47.356;19.448;2022-08-03T09:46:55;31.98;39.22
68274;SHT30;55104;47.356;19.448;2022-08-03T09:50:01;32.22;39.31
68274;SHT30;55104;47.356;19.448;2022-08-03T09:53:03;32.43;39.48
68274;SHT30;55104;47.356;19.448;2022-08-03T09:56:06;31.93;38.47
68274;SHT30;55104;47.356;19.448;2022-08-03T09:59:30;31.98;38.17
68274;SHT30;55104;47.356;19.448;2022-08-03T10:02:34;32.19;38.22
68274;SHT30;55104;47.356;19.448;2022-08-03T10:05:36;31.92;39.07
68274;SHT30;55104;47.356;19.448;2022-08-03T10:08:41;31.71;38.82
68274;SHT30;55104;47.356;19.448;2022-08-03T10:11:43;31.45;40.32
68274;SHT30;55104;47.356;19.448;2022-08-03T10:14:47;32.06;40.08
68274;SHT30;55104;47.356;19.448;2022-08-03T10:17:49;32.15;37.67
68274;SHT30;55104;47.356;19.448;2022-08-03T10:20:52;32.43;37.25
68274;SHT30;55104;47.356;19.448;2022-08-03T10:23:56;32.59;37.14
68274;SHT30;55104;47.356;19.448;2022-08-03T10:27:01;32.50;37.77
68274;SHT30;55104;47.356;19.448;2022-08-03T10:30:10;31.82;37.20
68274;SHT30;55104;47.356;19.448;2022-08-03T10:33:16;31.48;38.42
68274;SHT30;55104;47.356;19.448;2022-08-03T10:36:40;30.85;39.56
68274;SHT30;55104;47.356;19.448;2022-08-03T10:39:43;30.74;39.00
68274;SHT30;55104;47.356;19.448;2022-08-03T10:42:58;31.61;39.02
68274;SHT30;55104;47.356;19.448;2022-08-03T10:46:05;32.02;36.77
68274;SHT30;55104;47.356;19.448;2022-08-03T10:49:15;32.87;37.16
68274;SHT30;55104;47.356;19.448;2022-08-03T10:53:04;33.50;35.67
68274;SHT30;55104;47.356;19.448;2022-08-03T10:59:57;33.87;34.75
68274;SHT30;55104;47.356;19.448;2022-08-03T11:03:05;33.94;36.10
68274;SHT30;55104;47.356;19.448;2022-08-03T11:06:18;34.00;35.77
68274;SHT30;55104;47.356;19.448;2022-08-03T11:09:21;34.53;35.13
68274;SHT30;55104;47.356;19.448;2022-08-03T11:12:31;34.87;33.68
68274;SHT30;55104;47.356;19.448;2022-08-03T11:15:34;34.84;33.41
68274;SHT30;55104;47.356;19.448;2022-08-03T11:18:54;34.56;33.15
68274;SHT30;55104;47.356;19.448;2022-08-03T11:21:57;33.45;34.26
68274;SHT30;55104;47.356;19.448;2022-08-03T11:25:00;32.92;34.11
68274;SHT30;55104;47.356;19.448;2022-08-03T11:28:24;33.14;34.09
68274;SHT30;55104;47.356;19.448;2022-08-03T11:35:13;32.56;35.18
68274;SHT30;55104;47.356;19.448;2022-08-03T11:38:15;32.63;35.64
68274;SHT30;55104;47.356;19.448;2022-08-03T11:41:32;33.25;35.08
68274;SHT30;55104;47.356;19.448;2022-08-03T11:44:46;34.04;32.70
68274;SHT30;55104;47.356;19.448;2022-08-03T11:47:53;34.28;33.13
68274;SHT30;55104;47.356;19.448;2022-08-03T11:50:56;34.17;33.96
68274;SHT30;55104;47.356;19.448;2022-08-03T11:54:03;34.71;33.65
68274;SHT30;55104;47.356;19.448;2022-08-03T11:57:05;33.97;32.23
68274;SHT30;55104;47.356;19.448;2022-08-03T12:00:30;33.98;31.49
68274;SHT30;55104;47.356;19.448;2022-08-03T12:03:33;33.78;32.51
68274;SHT30;55104;47.356;19.448;2022-08-03T12:06:35;33.07;32.40
68274;SHT30;55104;47.356;19.448;2022-08-03T12:10:12;33.11;31.27
68274;SHT30;55104;47.356;19.448;2022-08-03T12:13:15;33.33;31.73
68274;SHT30;55104;47.356;19.448;2022-08-03T12:16:38;32.91;32.17
68274;SHT30;55104;47.356;19.448;2022-08-03T12:19:41;32.84;34.59
68274;SHT30;55104;47.356;19.448;2022-08-03T12:22:43;33.67;32.74
68274;SHT30;55104;47.356;19.448;2022-08-03T12:25:46;34.05;32.65
68274;SHT30;55104;47.356;19.448;2022-08-03T12:28:50;34.35;32.53
68274;SHT30;55104;47.356;19.448;2022-08-03T12:31:52;34.86;31.64
68274;SHT30;55104;47.356;19.448;2022-08-03T12:34:55;35.13;30.83
68274;SHT30;55104;47.356;19.448;2022-08-03T12:38:01;35.18;30.31
68274;SHT30;55104;47.356;19.448;2022-08-03T12:41:09;34.97;28.90
68274;SHT30;55104;47.356;19.448;2022-08-03T12:44:17;35.46;29.64
68274;SHT30;55104;47.356;19.448;2022-08-03T12:47:19;35.27;28.94
68274;SHT30;55104;47.356;19.448;2022-08-03T12:50:29;35.39;29.39
68274;SHT30;55104;47.356;19.448;2022-08-03T12:53:32;35.07;28.95
68274;SHT30;55104;47.356;19.448;2022-08-03T12:56:34;34.57;30.21
68274;SHT30;55104;47.356;19.448;2022-08-03T13:00:10;34.26;31.66
68274;SHT30;55104;47.356;19.448;2022-08-03T13:03:41;34.31;30.57
68274;SHT30;55104;47.356;19.448;2022-08-03T13:10:05;33.76;30.75
68274;SHT30;55104;47.356;19.448;2022-08-03T13:13:09;33.42;31.06
68274;SHT30;55104;47.356;19.448;2022-08-03T13:16:11;33.12;31.46
68274;SHT30;55104;47.356;19.448;2022-08-03T13:19:19;33.41;31.70
68274;SHT30;55104;47.356;19.448;2022-08-03T13:22:23;33.05;31.50
68274;SHT30;55104;47.356;19.448;2022-08-03T13:25:26;33.09;33.33
68274;SHT30;55104;47.356;19.448;2022-08-03T13:28:28;33.53;31.64
68274;SHT30;55104;47.356;19.448;2022-08-03T13:31:30;32.78;32.05
68274;SHT30;55104;47.356;19.448;2022-08-03T13:34:32;32.64;32.18
68274;SHT30;55104;47.356;19.448;2022-08-03T13:37:35;32.57;32.37
68274;SHT30;55104;47.356;19.448;2022-08-03T13:40:37;32.74;32.23
68274;SHT30;55104;47.356;19.448;2022-08-03T13:43:42;33.04;31.77
68274;SHT30;55104;47.356;19.448;2022-08-03T13:46:45;33.16;31.74
68274;SHT30;55104;47.356;19.448;2022-08-03T13:49:48;33.74;32.01
68274;SHT30;55104;47.356;19.448;2022-08-03T13:53:02;33.73;31.54
68274;SHT30;55104;47.356;19.448;2022-08-03T13:56:05;33.70;30.82
68274;SHT30;55104;47.356;19.448;2022-08-03T13:59:07;34.19;30.42
68274;SHT30;55104;47.356;19.448;2022-08-03T14:02:09;34.39;29.68
68274;SHT30;55104;47.356;19.448;2022-08-03T14:05:11;34.02;30.53
68274;SHT30;55104;47.356;19.448;2022-08-03T14:08:13;34.17;30.73
68274;SHT30;55104;47.356;19.448;2022-08-03T14:11:15;34.09;30.73
68274;SHT30;55104;47.356;19.448;2022-08-03T14:14:18;34.36;31.05
68274;SHT30;55104;47.356;19.448;2022-08-03T14:17:20;34.38;30.79
68274;SHT30;55104;47.356;19.448;2022-08-03T14:20:26;34.69;30.30
68274;SHT30;55104;47.356;19.448;2022-08-03T14:23:47;34.73;30.62
68274;SHT30;55104;47.356;19.448;2022-08-03T14:26:49;34.84;30.88
68274;SHT30;55104;47.356;19.448;2022-08-03T14:29:51;34.94;29.33
68274;SHT30;55104;47.356;19.448;2022-08-03T14:32:53;35.25;29.57
68274;SHT30;55104;47.356;19.448;2022-08-03T14:36:01;35.25;29.30
68274;SHT30;55104;47.356;19.448;2022-08-03T14:39:03;35.41;29.17
68274;SHT30;55104;47.356;19.448;2022-08-03T14:42:05;35.46;28.40
68274;SHT30;55104;47.356;19.448;2022-08-03T14:45:08;35.51;28.96
68274;SHT30;55104;47.356;19.448;2022-08-03T14:48:22;35.44;29.83
68274;SHT30;55104;47.356;19.448;2022-08-03T14:51:45;35.07;29.73
68274;SHT30;55104;47.356;19.448;2022-08-03T14:54:54;35.04;29.77
68274;SHT30;55104;47.356;19.448;2022-08-03T14:57:56;34.45;29.87
68274;SHT30;55104;47.356;19.448;2022-08-03T15:00:58;34.87;29.98
68274;SHT30;55104;47.356;19.448;2022-08-03T15:04:00;35.01;29.60
68274;SHT30;55104;47.356;19.448;2022-08-03T15:07:02;34.49;29.51
68274;SHT30;55104;47.356;19.448;2022-08-03T15:10:05;33.84;30.44
68274;SHT30;55104;47.356;19.448;2022-08-03T15:13:11;33.67;30.88
68274;SHT30;55104;47.356;19.448;2022-08-03T15:16:13;33.45;31.08
68274;SHT30;55104;47.356;19.448;2022-08-03T15:19:16;33.45;31.48
68274;SHT30;55104;47.356;19.448;2022-08-03T15:22:39;32.75;32.76
68274;SHT30;55104;47.356;19.448;2022-08-03T15:25:45;32.26;33.92
68274;SHT30;55104;47.356;19.448;2022-08-03T15:29:07;32.01;34.49
68274;SHT30;55104;47.356;19.448;2022-08-03T15:32:29;32.05;34.23
68274;SHT30;55104;47.356;19.448;2022-08-03T15:35:31;31.89;33.96
68274;SHT30;55104;47.356;19.448;2022-08-03T15:38:34;32.13;34.30
68274;SHT30;55104;47.356;19.448;2022-08-03T15:41:36;31.99;33.96
68274;SHT30;55104;47.356;19.448;2022-08-03T15:44:38;31.89;34.48
68274;SHT30;55104;47.356;19.448;2022-08-03T15:47:40;31.61;34.15
68274;SHT30;55104;47.356;19.448;2022-08-03T15:50:43;31.68;34.08
68274;SHT30;55104;47.356;19.448;2022-08-03T15:53:45;31.62;34.10
68274;SHT30;55104;47.356;19.448;2022-08-03T15:56:47;31.72;34.19
68274;SHT30;55104;47.356;19.448;2022-08-03T15:59:49;31.91;33.45
68274;SHT30;55104;47.356;19.448;2022-08-03T16:03:01;31.84;33.68
68274;SHT30;55104;47.356;19.448;2022-08-03T16:06:08;31.89;33.66
68274;SHT30;55104;47.356;19.448;2022-08-03T16:09:10;32.01;33.48
68274;SHT30;55104;47.356;19.448;2022-08-03T16:12:32;32.04;33.81
68274;SHT30;55104;47.356;19.448;2022-08-03T16:15:34;31.92;34.49
68274;SHT30;55104;47.356;19.448;2022-08-03T16:18:39;31.86;34.51
68274;SHT30;55104;47.356;19.448;2022-08-03T16:21:42;31.93;33.18
68274;SHT30;55104;47.356;19.448;2022-08-03T16:24:53;32.01;33.70
68274;SHT30;55104;47.356;19.448;2022-08-03T16:27:55;32.06;32.87
68274;SHT30;55104;47.356;19.448;2022-08-03T16:31:13;31.91;33.67
68274;SHT30;55104;47.356;19.448;2022-08-03T16:34:15;31.81;34.10
68274;SHT30;55104;47.356;19.448;2022-08-03T16:37:19;31.70;33.31
68274;SHT30;55104;47.356;19.448;2022-08-03T16:40:40;31.68;34.36
68274;SHT30;55104;47.356;19.448;2022-08-03T16:43:42;31.57;34.53
68274;SHT30;55104;47.356;19.448;2022-08-03T16:46:44;31.37;34.32
68274;SHT30;55104;47.356;19.448;2022-08-03T16:49:46;31.25;34.82
68274;SHT30;55104;47.356;19.448;2022-08-03T16:52:57;31.02;37.17
68274;SHT30;55104;47.356;19.448;2022-08-03T16:55:59;30.83;37.50
68274;SHT30;55104;47.356;19.448;2022-08-03T16:59:02;30.65;35.78
68274;SHT30;55104;47.356;19.448;2022-08-03T17:02:04;30.64;35.68
68274;SHT30;55104;47.356;19.448;2022-08-03T17:05:11;30.58;35.67
68274;SHT30;55104;47.356;19.448;2022-08-03T17:08:14;30.55;36.00
68274;SHT30;55104;47.356;19.448;2022-08-03T17:11:19;30.57;36.41
68274;SHT30;55104;47.356;19.448;2022-08-03T17:14:22;30.48;36.73
68274;SHT30;55104;47.356;19.448;2022-08-03T17:17:32;30.34;36.78
68274;SHT30;55104;47.356;19.448;2022-08-03T17:20:54;30.23;37.39
68274;SHT30;55104;47.356;19.448;2022-08-03T17:24:23;30.14;37.60
68274;SHT30;55104;47.356;19.448;2022-08-03T17:27:28;30.03;37.68
68274;SHT30;55104;47.356;19.448;2022-08-03T17:30:53;29.86;37.96
68274;SHT30;55104;47.356;19.448;2022-08-03T17:34:33;29.66;38.43
68274;SHT30;55104;47.356;19.448;2022-08-03T17:37:35;29.55;38.51
68274;SHT30;55104;47.356;19.448;2022-08-03T17:40:58;29.39;39.83
68274;SHT30;55104;47.356;19.448;2022-08-03T17:44:00;29.25;40.49
68274;SHT30;55104;47.356;19.448;2022-08-03T17:47:22;29.10;40.03
68274;SHT30;55104;47.356;19.448;2022-08-03T17:50:49;29.02;39.45
68274;SHT30;55104;47.356;19.448;2022-08-03T17:54:11;28.88;40.34
68274;SHT30;55104;47.356;19.448;2022-08-03T17:57:33;28.68;40.95
68274;SHT30;55104;47.356;19.448;2022-08-03T18:00:56;28.51;40.94
68274;SHT30;55104;47.356;19.448;2022-08-03T18:04:41;28.35;41.19
68274;SHT30;55104;47.356;19.448;2022-08-03T18:07:56;28.18;42.30
68274;SHT30;55104;47.356;19.448;2022-08-03T18:11:07;28.01;42.92
68274;SHT30;55104;47.356;19.448;2022-08-03T18:14:37;27.85;43.26
68274;SHT30;55104;47.356;19.448;2022-08-03T18:18:02;27.66;43.10
68274;SHT30;55104;47.356;19.448;2022-08-03T18:21:11;27.52;43.55
68274;SHT30;55104;47.356;19.448;2022-08-03T18:24:19;27.35;44.65
68274;SHT30;55104;47.356;19.448;2022-08-03T18:27:25;27.24;45.00
68274;SHT30;55104;47.356;19.448;2022-08-03T18:30:49;27.08;45.11
68274;SHT30;55104;47.356;19.448;2022-08-03T18:33:56;27.03;45.45
68274;SHT30;55104;47.356;19.448;2022-08-03T18:37:22;26.86;45.37
68274;SHT30;55104;47.356;19.448;2022-08-03T18:40:27;26.73;46.62
68274;SHT30;55104;47.356;19.448;2022-08-03T18:43:30;26.64;46.69
68274;SHT30;55104;47.356;19.448;2022-08-03T18:53:46;26.43;46.19
68274;SHT30;55104;47.356;19.448;2022-08-03T18:57:07;26.32;46.99
68274;SHT30;55104;47.356;19.448;2022-08-03T19:00:16;26.24;47.04
68274;SHT30;55104;47.356;19.448;2022-08-03T19:03:35;26.17;46.77
68274;SHT30;55104;47.356;19.448;2022-08-03T19:06:47;26.08;46.85
68274;SHT30;55104;47.356;19.448;2022-08-03T19:10:06;26.02;46.92
68274;SHT30;55104;47.356;19.448;2022-08-03T19:13:26;25.96;47.47
68274;SHT30;55104;47.356;19.448;2022-08-03T19:16:38;25.81;48.27
68274;SHT30;55104;47.356;19.448;2022-08-03T19:19:44;25.70;48.49
68274;SHT30;55104;47.356;19.448;2022-08-03T19:22:47;25.71;48.47
68274;SHT30;55104;47.356;19.448;2022-08-03T19:25:51;25.67;48.41
68274;SHT30;55104;47.356;19.448;2022-08-03T19:28:55;25.74;48.50
68274;SHT30;55104;47.356;19.448;2022-08-03T19:31:59;25.73;49.00
68274;SHT30;55104;47.356;19.448;2022-08-03T19:35:03;25.71;48.73
68274;SHT30;55104;47.356;19.448;2022-08-03T19:38:15;25.70;48.58
68274;SHT30;55104;47.356;19.448;2022-08-03T19:41:33;25.73;48.74
68274;SHT30;55104;47.356;19.448;2022-08-03T19:44:53;25.69;49.38
68274;SHT30;55104;47.356;19.448;2022-08-03T19:48:03;25.70;48.61
68274;SHT30;55104;47.356;19.448;2022-08-03T19:51:11;25.76;47.72
68274;SHT30;55104;47.356;19.448;2022-08-03T19:54:14;25.76;47.78
68274;SHT30;55104;47.356;19.448;2022-08-03T19:57:18;25.80;47.80